Fields, Louisiana
Current Conditions -  °F | °C
As of 8:55 PM on Wednesday 22 Oct 2014 (Local Time) from KDRI Reporting Station
Clear Clear  
Wind Chill: 64°   Ceiling: Unl
Heat Index: 64°   Visibility: 10mi
Dew Point: 55°   Wind: 0mph
Humidity: 73%   Direction: NA
Pressure: 30.11"   Gusts: NA
Location:  30.7059°N, 93.5527°W
Report Text: KDRI 230155Z AUTO 00000KT 10SM CLR 18/13 A3011 RMK AO2 T01750126
Loading
Personal Weather Stations






























Interactive Weather Map
Tropical Storm Tracking
New forecast layout! Learn more

10-Day Weather Forecast

Advertisements
Track Severe Weather on mobile